Time;durP1;ratioP1;P1;durP2;ratioP2;P2;SDS_P1;SDS_P2;PMS_P1;PMS_P2;Temp;Humidity;BMP_temperature;BMP_pressure;BME280_temperature;BME280_humidity;BME280_pressure;Samples;Min_cycle;Max_cycle;Signal;HPM_P1;HPM_P2
2023/07/02 00:02:19;;;;;;;3.55;1.10;;;;;;;16.11;100.00;99745.06;5055988;28;20052;-64
2023/07/02 00:04:46;;;;;;;5.07;1.23;;;;;;;16.10;100.00;99737.16;5055747;28;20569;-63
2023/07/02 00:07:14;;;;;;;4.93;1.00;;;;;;;16.08;100.00;99745.50;5056766;28;20051;-62
2023/07/02 00:09:41;;;;;;;3.72;1.33;;;;;;;16.11;100.00;99744.22;5055612;28;20496;-64
2023/07/02 00:12:08;;;;;;;5.35;1.70;;;;;;;16.15;100.00;99740.03;5054563;28;20047;-64
2023/07/02 00:14:35;;;;;;;1.38;1.23;;;;;;;16.09;100.00;99747.16;5056196;28;20110;-63
2023/07/02 00:17:01;;;;;;;2.28;1.17;;;;;;;16.06;100.00;99752.19;5053702;28;20064;-64
2023/07/02 00:19:28;;;;;;;4.97;1.20;;;;;;;16.03;100.00;99747.22;5052693;28;20053;-63
2023/07/02 00:21:55;;;;;;;1.92;1.10;;;;;;;15.85;100.00;99743.38;5052283;28;20479;-63
2023/07/02 00:24:22;;;;;;;1.65;1.00;;;;;;;15.81;100.00;99749.44;5053326;28;20443;-62
2023/07/02 00:26:48;;;;;;;3.60;1.00;;;;;;;15.89;100.00;99741.06;5052190;28;20053;-62
2023/07/02 00:29:15;;;;;;;2.55;1.08;;;;;;;15.70;100.00;99735.56;5052112;28;20041;-64
2023/07/02 00:31:41;;;;;;;3.78;1.17;;;;;;;15.78;100.00;99750.72;5052701;28;20127;-63
2023/07/02 00:34:08;;;;;;;3.38;1.40;;;;;;;15.95;100.00;99753.69;5052457;28;20394;-64
2023/07/02 00:36:34;;;;;;;1.52;1.23;;;;;;;15.94;100.00;99755.56;5051544;28;20056;-62
2023/07/02 00:39:01;;;;;;;3.40;1.30;;;;;;;15.99;100.00;99751.41;5052262;28;20056;-64
2023/07/02 00:41:28;;;;;;;2.53;1.50;;;;;;;15.95;100.00;99757.25;5052347;28;22278;-62
2023/07/02 00:43:54;;;;;;;1.75;1.30;;;;;;;16.03;100.00;99758.03;5052285;28;20053;-65
2023/07/02 00:46:25;;;;;;;2.33;1.08;;;;;;;16.02;100.00;99761.75;5052275;28;20069;-63
2023/07/02 00:48:54;;;;;;;3.53;1.92;;;;;;;15.92;100.00;99764.97;5052414;28;20057;-64
2023/07/02 00:51:25;;;;;;;3.47;1.67;;;;;;;16.03;100.00;99769.69;5052161;28;20463;-63
2023/07/02 00:53:55;;;;;;;3.83;1.48;;;;;;;15.97;100.00;99764.31;5052149;28;20480;-62
2023/07/02 00:56:22;;;;;;;4.35;2.28;;;;;;;15.97;100.00;99770.56;5051793;28;20064;-62
2023/07/02 00:58:51;;;;;;;1.67;1.38;;;;;;;15.81;100.00;99768.38;5050810;28;20064;-63
2023/07/02 01:01:20;;;;;;;5.88;1.80;;;;;;;15.86;100.00;99760.44;5050469;28;20048;-63
2023/07/02 01:03:53;;;;;;;4.53;1.90;;;;;;;15.95;100.00;99756.41;5051425;28;20049;-63
2023/07/02 01:09:48;;;;;;;2.47;1.73;;;;;;;15.90;100.00;99765.19;5051489;28;20051;-63
2023/07/02 01:12:17;;;;;;;2.72;2.22;;;;;;;15.98;100.00;99772.19;5051296;28;20077;-63
2023/07/02 01:14:50;;;;;;;4.68;1.95;;;;;;;15.99;100.00;99773.88;5052010;28;20094;-62
2023/07/02 01:17:19;;;;;;;4.78;1.70;;;;;;;16.00;100.00;99772.00;5051118;28;20540;-62
2023/07/02 01:19:52;;;;;;;6.85;1.95;;;;;;;16.04;100.00;99776.75;5052133;28;20048;-63
2023/07/02 01:22:22;;;;;;;4.65;1.80;;;;;;;16.04;100.00;99773.22;5052110;28;20045;-64
2023/07/02 01:24:50;;;;;;;5.60;2.22;;;;;;;15.94;100.00;99771.00;5051454;28;20424;-63
2023/07/02 01:27:16;;;;;;;5.85;2.15;;;;;;;16.01;100.00;99777.19;5052053;28;20067;-63
2023/07/02 01:29:46;;;;;;;2.78;2.00;;;;;;;15.94;100.00;99769.09;5050763;28;20130;-63
2023/07/02 01:32:14;;;;;;;2.60;1.95;;;;;;;15.80;100.00;99772.94;5051979;28;20052;-63
2023/07/02 01:34:40;;;;;;;2.95;2.03;;;;;;;15.83;100.00;99766.28;5051971;28;20119;-63
2023/07/02 01:37:09;;;;;;;4.53;1.92;;;;;;;15.79;100.00;99774.00;5052163;28;20045;-63
2023/07/02 01:39:35;;;;;;;4.18;2.22;;;;;;;15.87;100.00;99771.03;5051973;28;20051;-62
2023/07/02 01:42:15;;;;;;;4.45;2.75;;;;;;;15.86;100.00;99774.78;5049156;28;20413;-62
2023/07/02 01:44:45;;;;;;;2.45;2.20;;;;;;;15.84;100.00;99765.22;5050354;28;20444;-64
2023/07/02 01:47:12;;;;;;;5.55;2.88;;;;;;;15.83;100.00;99774.41;5051708;28;20390;-64
2023/07/02 01:49:39;;;;;;;3.50;2.80;;;;;;;15.85;100.00;99766.91;5051608;28;20071;-62
2023/07/02 01:52:06;;;;;;;6.13;2.70;;;;;;;15.87;100.00;99781.03;5051241;28;20459;-63
2023/07/02 01:54:34;;;;;;;5.30;2.90;;;;;;;15.94;100.00;99782.63;5050701;28;20477;-63
2023/07/02 01:57:01;;;;;;;3.20;2.65;;;;;;;15.87;100.00;99787.25;5050820;28;20064;-63
2023/07/02 01:59:28;;;;;;;6.10;2.78;;;;;;;15.84;100.00;99782.28;5050907;28;20045;-63
2023/07/02 02:01:54;;;;;;;3.55;2.85;;;;;;;15.77;100.00;99786.91;5050586;28;20471;-64
2023/07/02 02:04:21;;;;;;;4.13;2.92;;;;;;;15.63;100.00;99786.16;5050773;28;20045;-62
2023/07/02 02:06:47;;;;;;;6.05;3.30;;;;;;;15.61;100.00;99782.81;5050597;28;20053;-63
2023/07/02 02:09:14;;;;;;;5.72;2.45;;;;;;;15.64;100.00;99785.13;5050704;28;20049;-63
2023/07/02 02:11:50;;;;;;;5.05;2.78;;;;;;;15.47;100.00;99781.22;5050223;28;20111;-62
2023/07/02 02:14:16;;;;;;;4.63;2.58;;;;;;;15.49;100.00;99779.13;5051379;28;20049;-63
2023/07/02 02:16:46;;;;;;;7.10;2.70;;;;;;;15.54;100.00;99784.72;5050938;28;20045;-63
2023/07/02 02:19:16;;;;;;;6.78;2.97;;;;;;;15.51;100.00;99785.16;5050954;28;20049;-63
2023/07/02 02:21:43;;;;;;;4.13;2.53;;;;;;;15.38;100.00;99788.75;5050969;28;20544;-62
2023/07/02 02:24:10;;;;;;;2.88;2.38;;;;;;;15.33;100.00;99793.97;5051010;28;20047;-63
2023/07/02 02:26:37;;;;;;;6.25;2.55;;;;;;;15.40;100.00;99793.94;5051603;28;20098;-63
2023/07/02 02:29:04;;;;;;;4.88;2.47;;;;;;;15.49;100.00;99793.47;5050898;28;20049;-64
2023/07/02 02:31:30;;;;;;;7.53;2.60;;;;;;;15.50;100.00;99799.72;5051013;28;20048;-63
2023/07/02 02:33:57;;;;;;;3.58;2.42;;;;;;;15.43;100.00;99801.59;5049341;28;20559;-63
2023/07/02 02:36:24;;;;;;;5.50;2.72;;;;;;;15.59;100.00;99803.81;5050756;28;20055;-63
2023/07/02 02:38:50;;;;;;;6.05;2.70;;;;;;;15.57;100.00;99803.22;5050779;28;20072;-63
2023/07/02 02:41:17;;;;;;;4.13;2.47;;;;;;;15.44;100.00;99795.16;5050522;28;20087;-63
2023/07/02 02:43:44;;;;;;;5.75;2.83;;;;;;;15.40;100.00;99802.06;5050544;28;20520;-62
2023/07/02 02:46:11;;;;;;;3.05;2.03;;;;;;;15.41;100.00;99799.13;5050785;28;20079;-62
2023/07/02 02:48:38;;;;;;;7.28;2.30;;;;;;;15.53;100.00;99801.16;5050865;28;20045;-63
2023/07/02 02:51:04;;;;;;;6.22;2.20;;;;;;;15.52;100.00;99800.31;5049769;28;20048;-64
2023/07/02 02:53:31;;;;;;;3.83;2.53;;;;;;;15.49;100.00;99806.16;5050701;28;20048;-63
2023/07/02 02:55:57;;;;;;;5.40;2.55;;;;;;;15.39;100.00;99805.78;5050555;28;20084;-62
2023/07/02 02:58:24;;;;;;;6.60;2.53;;;;;;;15.37;100.00;99816.81;5050259;28;20049;-63
2023/07/02 03:00:51;;;;;;;5.55;2.30;;;;;;;15.43;100.00;99807.84;5050210;28;20044;-63
2023/07/02 03:03:17;;;;;;;8.25;3.00;;;;;;;15.41;100.00;99809.94;5050081;28;20061;-63
2023/07/02 03:05:47;;;;;;;8.07;2.70;;;;;;;15.38;100.00;99806.84;5050402;28;20045;-63
2023/07/02 03:08:14;;;;;;;6.53;2.30;;;;;;;15.36;100.00;99811.59;5049832;28;20493;-63
2023/07/02 03:10:41;;;;;;;5.28;2.65;;;;;;;15.39;100.00;99809.31;5050513;28;20455;-63
2023/07/02 03:13:08;;;;;;;6.70;2.05;;;;;;;15.48;100.00;99818.03;5050663;28;20102;-63
2023/07/02 03:15:34;;;;;;;7.90;2.40;;;;;;;15.38;100.00;99810.34;5050291;28;20049;-63
2023/07/02 03:18:01;;;;;;;5.25;2.63;;;;;;;15.40;100.00;99816.41;5050311;28;20374;-63
2023/07/02 03:20:27;;;;;;;4.00;2.30;;;;;;;15.38;100.00;99820.34;5050054;28;20045;-63
2023/07/02 03:22:54;;;;;;;3.97;2.20;;;;;;;15.39;100.00;99819.28;5049988;28;20056;-63
2023/07/02 03:25:20;;;;;;;4.55;2.30;;;;;;;15.33;100.00;99814.72;5050038;28;20102;-62
2023/07/02 03:27:47;;;;;;;4.10;1.90;;;;;;;15.43;100.00;99812.41;5049650;28;20107;-63
2023/07/02 03:30:14;;;;;;;5.32;1.85;;;;;;;15.44;100.00;99814.09;5050118;28;20137;-63
2023/07/02 03:32:40;;;;;;;3.75;2.35;;;;;;;15.42;100.00;99822.41;5050716;28;20041;-63
2023/07/02 03:35:07;;;;;;;5.20;2.38;;;;;;;15.37;100.00;99819.53;5050031;28;20049;-63
2023/07/02 03:37:34;;;;;;;6.32;3.40;;;;;;;15.32;100.00;99818.50;5050025;28;20068;-62
2023/07/02 03:40:00;;;;;;;3.15;2.15;;;;;;;15.15;100.00;99820.81;5049739;28;20045;-63
2023/07/02 03:42:27;;;;;;;8.75;2.60;;;;;;;15.13;100.00;99817.53;5050010;28;20500;-63
2023/07/02 03:44:53;;;;;;;5.10;2.83;;;;;;;14.98;100.00;99820.44;5049889;28;20467;-63
2023/07/02 03:47:20;;;;;;;5.70;2.25;;;;;;;15.09;100.00;99817.13;5049603;28;20460;-63
2023/07/02 03:49:47;;;;;;;4.35;2.20;;;;;;;15.15;100.00;99824.34;5049371;28;20057;-63
2023/07/02 03:52:14;;;;;;;7.43;2.75;;;;;;;15.08;100.00;99820.84;5051451;28;20052;-63
2023/07/02 03:54:40;;;;;;;4.20;2.40;;;;;;;14.98;100.00;99824.00;5054173;28;20083;-63
2023/07/02 03:57:07;;;;;;;5.03;2.20;;;;;;;15.25;100.00;99838.25;5052657;28;20033;-63
2023/07/02 03:59:34;;;;;;;3.47;2.30;;;;;;;15.17;100.00;99841.19;5052703;28;20044;-63
2023/07/02 04:02:01;;;;;;;3.92;1.90;;;;;;;15.26;100.00;99833.69;5052491;28;20095;-63
2023/07/02 04:04:28;;;;;;;9.95;2.00;;;;;;;15.29;100.00;99830.53;5052928;28;20132;-62
2023/07/02 04:06:54;;;;;;;4.40;2.30;;;;;;;15.45;100.00;99837.38;5053093;28;20066;-62
2023/07/02 04:09:21;;;;;;;4.20;1.98;;;;;;;15.38;100.00;99836.56;5053209;28;20064;-63
2023/07/02 04:11:47;;;;;;;4.50;1.83;;;;;;;15.41;100.00;99847.78;5052931;28;20497;-62
2023/07/02 04:14:14;;;;;;;5.30;2.33;;;;;;;15.48;100.00;99858.56;5053068;28;20049;-62
2023/07/02 04:16:44;;;;;;;6.95;2.22;;;;;;;15.54;100.00;99854.19;5053620;28;20080;-63
2023/07/02 04:19:11;;;;;;;3.45;2.05;;;;;;;15.48;100.00;99858.56;5050806;28;20043;-63
2023/07/02 04:21:37;;;;;;;8.45;2.00;;;;;;;15.49;100.00;99855.63;5053910;28;20055;-62
2023/07/02 04:24:04;;;;;;;4.05;2.17;;;;;;;15.65;100.00;99854.38;5053098;28;20071;-62
2023/07/02 04:26:31;;;;;;;7.53;2.33;;;;;;;15.43;100.00;99850.25;5053031;28;20056;-63
2023/07/02 04:29:17;;;;;;;6.57;2.33;;;;;;;15.37;100.00;99853.81;5053194;28;20040;-62
2023/07/02 04:31:44;;;;;;;4.97;1.98;;;;;;;15.37;100.00;99853.81;5053075;28;20486;-63
2023/07/02 04:34:11;;;;;;;4.68;2.08;;;;;;;15.53;100.00;99845.22;5052817;28;20048;-62
2023/07/02 04:36:37;;;;;;;4.38;2.10;;;;;;;15.59;100.00;99849.78;5053228;28;20075;-63
2023/07/02 04:39:04;;;;;;;5.53;2.03;;;;;;;15.58;100.00;99856.25;5052880;28;20044;-62
2023/07/02 04:41:32;;;;;;;6.50;2.38;;;;;;;15.62;100.00;99854.75;5052805;28;20048;-62
2023/07/02 04:43:59;;;;;;;7.07;2.30;;;;;;;15.65;100.00;99861.66;5051374;28;20056;-62
2023/07/02 04:46:25;;;;;;;6.88;2.00;;;;;;;15.71;100.00;99871.63;5052719;28;20049;-63
2023/07/02 04:48:52;;;;;;;7.30;2.40;;;;;;;15.71;100.00;99879.72;5052516;28;20054;-62
2023/07/02 04:51:20;;;;;;;6.63;2.08;;;;;;;15.52;100.00;99878.72;5052501;28;20131;-62
2023/07/02 04:53:46;;;;;;;4.53;1.88;;;;;;;15.49;100.00;99879.13;5052371;28;20079;-62
2023/07/02 04:56:13;;;;;;;9.27;2.20;;;;;;;15.51;100.00;99885.16;5051341;28;20053;-62
2023/07/02 04:58:39;;;;;;;5.78;1.85;;;;;;;15.47;100.00;99870.44;5084879;28;20106;-62
2023/07/02 05:01:06;;;;;;;4.50;2.08;;;;;;;15.66;100.00;99877.66;5052863;28;20048;-63
2023/07/02 05:03:32;;;;;;;5.55;2.00;;;;;;;15.77;100.00;99873.44;5052357;28;20110;-62
2023/07/02 05:05:59;;;;;;;9.20;2.20;;;;;;;15.73;100.00;99879.50;5052087;28;20132;-62
2023/07/02 05:08:25;;;;;;;4.88;2.10;;;;;;;15.93;100.00;99889.19;5052969;28;20037;-62
2023/07/02 05:10:52;;;;;;;5.55;2.15;;;;;;;15.95;100.00;99889.81;5052306;28;20118;-62
2023/07/02 05:13:19;;;;;;;6.28;1.80;;;;;;;16.03;100.00;99893.31;5051764;28;20119;-63
2023/07/02 05:15:46;;;;;;;4.57;1.90;;;;;;;16.09;100.00;99895.97;5051884;28;20045;-61
2023/07/02 05:18:12;;;;;;;8.52;2.17;;;;;;;16.11;100.00;99891.16;5052125;28;20064;-61
2023/07/02 05:20:39;;;;;;;6.45;2.30;;;;;;;16.12;100.00;99890.09;5052675;28;20075;-62
2023/07/02 05:23:05;;;;;;;5.40;2.00;;;;;;;16.10;100.00;99897.63;5051274;28;20464;-63
2023/07/02 05:25:33;;;;;;;4.68;1.80;;;;;;;16.13;100.00;99894.50;5052004;28;20049;-62
2023/07/02 05:28:00;;;;;;;3.75;1.88;;;;;;;16.11;100.00;99895.75;5051640;28;20467;-62
2023/07/02 05:30:26;;;;;;;13.25;2.25;;;;;;;16.10;100.00;99899.50;5051895;28;20098;-62
2023/07/02 05:32:53;;;;;;;10.57;2.38;;;;;;;16.24;100.00;99898.38;5051890;28;20416;-63
2023/07/02 05:35:19;;;;;;;5.72;2.30;;;;;;;16.18;100.00;99894.66;5051939;28;20071;-62
2023/07/02 05:37:46;;;;;;;8.68;1.77;;;;;;;16.28;100.00;99901.47;5051684;28;20053;-62
2023/07/02 05:40:12;;;;;;;8.80;2.33;;;;;;;16.21;100.00;99898.81;5051044;28;20554;-62
2023/07/02 05:42:42;;;;;;;4.10;2.22;;;;;;;16.31;100.00;99906.47;5051781;28;20075;-63
2023/07/02 05:45:09;;;;;;;6.82;2.20;;;;;;;16.25;100.00;99899.22;5051786;28;20041;-61
2023/07/02 05:47:36;;;;;;;4.57;2.20;;;;;;;16.19;100.00;99907.16;5051034;28;20485;-62
2023/07/02 05:50:03;;;;;;;7.28;2.13;;;;;;;16.25;100.00;99910.03;5049894;28;20099;-62
2023/07/02 05:52:29;;;;;;;4.55;2.17;;;;;;;16.22;100.00;99907.75;5051444;28;20052;-62
2023/07/02 05:54:56;;;;;;;10.43;2.42;;;;;;;16.15;100.00;99908.63;5051355;28;20365;-62
2023/07/02 05:57:22;;;;;;;8.52;2.10;;;;;;;16.06;100.00;99914.53;5050818;28;20049;-61
2023/07/02 05:59:49;;;;;;;8.10;2.35;;;;;;;16.05;100.00;99918.25;5051263;28;20440;-61
2023/07/02 06:02:15;;;;;;;9.38;2.22;;;;;;;16.07;100.00;99913.47;5051004;28;20053;-62
2023/07/02 06:04:42;;;;;;;3.80;2.10;;;;;;;16.01;100.00;99923.25;5051406;28;20052;-63
2023/07/02 06:07:09;;;;;;;8.48;2.92;;;;;;;16.01;100.00;99928.69;5051350;28;20437;-61
2023/07/02 06:09:35;;;;;;;7.90;2.53;;;;;;;16.25;100.00;99924.38;5051080;28;20045;-61
2023/07/02 06:12:02;;;;;;;6.13;2.20;;;;;;;16.33;100.00;99926.84;5050923;28;20543;-62
2023/07/02 06:14:28;;;;;;;6.78;1.98;;;;;;;16.49;100.00;99911.13;5050204;28;20451;-62
2023/07/02 06:16:57;;;;;;;5.80;2.03;;;;;;;16.59;100.00;99909.63;5050776;28;20076;-61
2023/07/02 06:19:24;;;;;;;7.53;2.10;;;;;;;16.64;100.00;99914.38;5050948;28;20465;-61
2023/07/02 06:21:50;;;;;;;11.05;2.38;;;;;;;16.67;100.00;99911.22;5050955;28;20501;-62
2023/07/02 06:24:17;;;;;;;9.68;2.85;;;;;;;16.63;100.00;99921.66;5051223;28;20048;-62
2023/07/02 06:26:43;;;;;;;6.28;2.33;;;;;;;16.63;100.00;99924.38;5050839;28;20044;-62
2023/07/02 06:29:10;;;;;;;8.68;2.47;;;;;;;16.59;100.00;99925.88;5051246;28;20069;-61
2023/07/02 06:31:36;;;;;;;11.35;2.30;;;;;;;16.51;100.00;99918.03;5050739;28;20155;-62
2023/07/02 06:34:03;;;;;;;3.47;2.00;;;;;;;16.57;100.00;99900.06;5050610;28;20406;-62
2023/07/02 06:36:30;;;;;;;4.70;2.17;;;;;;;16.75;100.00;99896.56;5050687;28;20045;-62
2023/07/02 06:38:56;;;;;;;5.38;2.20;;;;;;;16.48;100.00;99901.34;5049623;28;20111;-62
2023/07/02 06:41:23;;;;;;;6.20;2.22;;;;;;;16.63;100.00;99910.84;5049358;28;20044;-61
2023/07/02 06:43:50;;;;;;;5.68;2.35;;;;;;;16.76;100.00;99918.03;5050480;28;20084;-61
2023/07/02 06:46:16;;;;;;;2.80;1.83;;;;;;;16.86;100.00;99926.50;5050433;28;20099;-62
2023/07/02 06:48:43;;;;;;;5.75;2.35;;;;;;;16.89;100.00;99919.81;5050603;28;20102;-62
2023/07/02 06:51:12;;;;;;;3.92;2.35;;;;;;;16.94;100.00;99919.16;5051120;28;20094;-62
2023/07/02 06:53:39;;;;;;;11.07;2.70;;;;;;;17.06;100.00;99914.66;5050692;28;20041;-63
2023/07/02 06:56:08;;;;;;;7.43;2.67;;;;;;;17.19;100.00;99913.69;5050533;28;20098;-62
2023/07/02 06:58:34;;;;;;;6.85;3.00;;;;;;;17.32;100.00;99913.56;5049920;28;20049;-63
2023/07/02 07:01:02;;;;;;;7.40;2.70;;;;;;;17.43;100.00;99922.88;5048855;28;20056;-63
2023/07/02 07:03:28;;;;;;;6.50;2.33;;;;;;;17.40;100.00;99921.44;5050456;28;20045;-61
2023/07/02 07:05:55;;;;;;;5.15;2.33;;;;;;;17.42;100.00;99919.34;5050022;28;20076;-62
2023/07/02 07:08:22;;;;;;;9.55;2.75;;;;;;;17.36;100.00;99920.22;5050241;28;20045;-63
2023/07/02 07:10:50;;;;;;;8.52;2.83;;;;;;;17.24;100.00;99916.59;5050249;28;20061;-62
2023/07/02 07:13:17;;;;;;;7.68;2.65;;;;;;;17.28;100.00;99917.78;5049948;28;20045;-61
2023/07/02 07:15:43;;;;;;;11.55;3.30;;;;;;;17.32;100.00;99921.72;5050347;28;20049;-63
2023/07/02 07:18:10;;;;;;;8.80;2.78;;;;;;;17.44;100.00;99922.66;5050076;28;20050;-63
2023/07/02 07:20:39;;;;;;;8.02;2.63;;;;;;;17.34;100.00;99923.19;5050481;28;20458;-62
2023/07/02 07:23:06;;;;;;;7.45;2.20;;;;;;;17.61;100.00;99917.44;5050107;28;20079;-61
2023/07/02 07:25:32;;;;;;;6.53;2.67;;;;;;;18.04;100.00;99927.38;5050281;28;20049;-62
2023/07/02 07:27:59;;;;;;;6.43;3.08;;;;;;;18.30;100.00;99926.19;5053916;28;20049;-62
2023/07/02 07:30:26;;;;;;;8.25;2.60;;;;;;;18.75;100.00;99921.13;5054010;28;20102;-62
2023/07/02 07:32:53;;;;;;;5.97;2.65;;;;;;;19.19;100.00;99921.66;5054035;28;20053;-62
2023/07/02 07:35:21;;;;;;;7.60;2.53;;;;;;;19.71;97.21;99923.66;5054284;28;20102;-61
2023/07/02 07:37:49;;;;;;;5.07;2.50;;;;;;;20.01;91.62;99918.03;5054262;28;20080;-62
2023/07/02 07:40:15;;;;;;;6.57;2.53;;;;;;;19.56;92.27;99917.88;5054039;28;20098;-64
2023/07/02 07:42:42;;;;;;;7.95;3.00;;;;;;;19.00;95.57;99923.69;5056981;28;20049;-61
2023/07/02 07:45:10;;;;;;;12.68;2.88;;;;;;;18.80;100.00;99931.31;5056097;28;20079;-62
2023/07/02 07:47:38;;;;;;;9.00;2.95;;;;;;;18.17;100.00;99924.53;5053865;28;20041;-62
2023/07/02 07:50:11;;;;;;;6.68;2.60;;;;;;;18.17;100.00;99932.66;5053731;28;20479;-63
2023/07/02 07:52:42;;;;;;;8.77;2.47;;;;;;;17.83;100.00;99934.94;5053893;28;20390;-62
2023/07/02 07:55:09;;;;;;;13.82;2.85;;;;;;;17.77;100.00;99935.84;5053994;28;20037;-64
2023/07/02 07:57:36;;;;;;;4.43;2.58;;;;;;;17.73;100.00;99942.78;5053314;28;20059;-63
2023/07/02 08:00:06;;;;;;;5.32;2.40;;;;;;;17.43;100.00;99942.69;5053509;28;20132;-63
2023/07/02 08:02:33;;;;;;;6.90;2.20;;;;;;;17.25;100.00;99942.63;5053591;28;20103;-63
2023/07/02 08:05:00;;;;;;;8.93;2.45;;;;;;;17.01;100.00;99938.88;5053660;28;20049;-62
2023/07/02 08:07:26;;;;;;;6.22;2.65;;;;;;;16.97;100.00;99951.22;5053491;28;20550;-64
2023/07/02 08:09:53;;;;;;;4.63;2.00;;;;;;;16.93;100.00;99952.72;5053423;28;20063;-64
2023/07/02 08:12:19;;;;;;;6.43;2.45;;;;;;;16.83;100.00;99953.22;5053032;28;20051;-62
2023/07/02 08:14:46;;;;;;;4.57;2.30;;;;;;;16.79;100.00;99957.41;5053122;28;20068;-61
2023/07/02 08:17:13;;;;;;;8.40;2.17;;;;;;;16.67;100.00;99960.81;5052662;28;20122;-63
2023/07/02 08:19:39;;;;;;;7.43;2.55;;;;;;;16.64;100.00;99960.41;5053607;28;20072;-62
2023/07/02 08:22:06;;;;;;;5.55;2.40;;;;;;;16.50;100.00;99953.38;5053124;28;20094;-63
2023/07/02 08:24:33;;;;;;;8.95;3.20;;;;;;;16.61;100.00;99952.75;5051954;28;20076;-62
2023/07/02 08:27:02;;;;;;;6.18;2.45;;;;;;;16.54;100.00;99951.94;5052860;28;20057;-66
2023/07/02 08:29:30;;;;;;;8.75;3.13;;;;;;;16.36;100.00;99947.22;5053166;28;20572;-63
2023/07/02 08:31:57;;;;;;;10.15;3.35;;;;;;;16.34;100.00;99947.47;5052494;28;20053;-62
2023/07/02 08:34:24;;;;;;;9.05;3.88;;;;;;;16.41;100.00;99944.72;5052871;28;20053;-62
2023/07/02 08:36:51;;;;;;;8.18;4.20;;;;;;;16.35;100.00;99953.69;5051911;28;20049;-63
2023/07/02 08:39:18;;;;;;;11.20;3.80;;;;;;;16.18;100.00;99948.78;5051195;28;20045;-62
2023/07/02 08:41:46;;;;;;;12.13;3.75;;;;;;;16.13;100.00;99947.78;5052803;28;20050;-63
2023/07/02 08:44:13;;;;;;;9.65;3.30;;;;;;;16.21;100.00;99946.69;5053022;28;20072;-62
2023/07/02 08:46:41;;;;;;;8.65;3.35;;;;;;;16.31;100.00;99956.00;5055256;28;20040;-63
2023/07/02 08:49:08;;;;;;;21.60;3.88;;;;;;;16.38;100.00;99958.69;5053100;28;20128;-64
2023/07/02 08:51:35;;;;;;;8.68;4.07;;;;;;;16.32;100.00;99962.25;5052814;28;20045;-63
2023/07/02 08:54:03;;;;;;;10.85;3.70;;;;;;;16.30;100.00;99967.06;5052567;28;20127;-63
2023/07/02 08:56:29;;;;;;;12.85;4.10;;;;;;;16.37;100.00;99965.16;5053204;28;20488;-62
2023/07/02 08:58:56;;;;;;;9.07;4.00;;;;;;;16.53;100.00;99974.66;5052653;28;20053;-63
2023/07/02 09:01:23;;;;;;;9.00;4.07;;;;;;;16.50;100.00;99972.34;5052663;28;20513;-64
2023/07/02 09:03:50;;;;;;;6.88;3.42;;;;;;;16.57;100.00;99971.28;5052706;28;20072;-63
2023/07/02 09:06:18;;;;;;;9.00;4.45;;;;;;;16.51;100.00;99972.19;5052524;28;20049;-64
2023/07/02 09:08:44;;;;;;;10.75;4.15;;;;;;;16.69;100.00;99978.72;5052504;28;20049;-61
2023/07/02 09:11:13;;;;;;;6.57;3.85;;;;;;;16.79;100.00;99979.06;5053159;28;20489;-63
2023/07/02 09:13:43;;;;;;;9.73;3.83;;;;;;;16.90;100.00;99987.31;5032566;28;20045;-62
2023/07/02 09:16:29;;;;;;;10.43;4.40;;;;;;;16.90;100.00;99992.75;5032495;28;20128;-63
2023/07/02 09:19:05;;;;;;;8.68;3.90;;;;;;;16.98;97.10;99986.22;5031846;28;20049;-63
2023/07/02 09:21:48;;;;;;;11.65;4.32;;;;;;;17.12;100.00;99981.50;5032019;28;20048;-63
2023/07/02 09:24:23;;;;;;;10.48;4.72;;;;;;;17.05;100.00;99986.97;5052109;28;20453;-63
2023/07/02 09:26:55;;;;;;;9.43;4.72;;;;;;;17.26;96.15;99990.38;5052039;28;20055;-63
2023/07/02 09:29:24;;;;;;;11.15;5.00;;;;;;;17.49;91.87;99993.31;5052197;28;20052;-63
2023/07/02 09:31:51;;;;;;;11.88;4.75;;;;;;;17.49;91.77;99987.88;5052159;28;20049;-63
2023/07/02 09:34:37;;;;;;;10.55;4.60;;;;;;;17.46;93.03;99991.03;5052203;28;20045;-64
2023/07/02 09:37:05;;;;;;;8.25;4.38;;;;;;;17.65;89.44;99993.78;5051862;28;20455;-63
2023/07/02 09:39:34;;;;;;;12.45;5.18;;;;;;;17.84;85.37;99987.31;5051529;28;20080;-62
2023/07/02 09:42:04;;;;;;;11.77;5.75;;;;;;;17.84;87.54;99992.75;5051515;28;20048;-62
2023/07/02 09:44:33;;;;;;;14.40;5.60;;;;;;;17.95;87.06;99989.25;5051975;28;20040;-64
2023/07/02 09:47:10;;;;;;;8.82;4.63;;;;;;;18.33;85.72;99996.34;5051590;28;20462;-63
2023/07/02 09:49:43;;;;;;;8.25;4.90;;;;;;;18.94;80.90;99989.03;5050645;28;20051;-62
2023/07/02 09:52:11;;;;;;;14.77;5.00;;;;;;;19.14;75.84;99985.97;5032127;28;20049;-62
2023/07/02 09:54:38;;;;;;;12.25;4.80;;;;;;;19.72;68.31;99977.00;5032048;28;20448;-64
2023/07/02 09:57:08;;;;;;;12.90;4.88;;;;;;;21.11;62.96;99984.91;5031698;28;20567;-63
2023/07/02 09:59:35;;;;;;;12.05;5.25;;;;;;;21.75;60.13;99976.28;5031729;28;20045;-63
2023/07/02 10:02:02;;;;;;;9.57;5.18;;;;;;;22.45;55.73;99982.91;5031864;28;20104;-63
2023/07/02 10:04:39;;;;;;;16.17;5.63;;;;;;;22.44;54.24;99969.50;5031860;28;20049;-62
2023/07/02 10:07:06;;;;;;;11.43;5.68;;;;;;;23.09;52.99;99978.59;5031466;28;20052;-62
2023/07/02 10:09:37;;;;;;;15.02;5.40;;;;;;;22.93;52.92;99969.44;5031438;28;20045;-63
2023/07/02 10:12:19;;;;;;;19.10;5.78;;;;;;;22.70;52.47;99979.63;5033079;28;20045;-64
2023/07/02 10:14:48;;;;;;;11.48;5.57;;;;;;;23.35;50.97;99968.69;5031094;28;20057;-63
2023/07/02 10:17:31;;;;;;;9.90;4.72;;;;;;;24.19;49.34;99973.25;5031262;28;20053;-64
2023/07/02 10:20:06;;;;;;;12.93;5.15;;;;;;;24.60;47.64;99974.22;5030948;28;20065;-63
2023/07/02 10:22:53;;;;;;;14.60;5.80;;;;;;;24.53;47.25;99973.66;5031338;28;20095;-63
2023/07/02 10:25:31;;;;;;;13.73;5.57;;;;;;;24.77;46.49;99973.97;5031160;28;20041;-63
2023/07/02 10:27:59;;;;;;;13.80;5.10;;;;;;;23.95;48.05;99970.13;5031040;28;20080;-63
2023/07/02 10:30:37;;;;;;;10.82;5.50;;;;;;;24.54;47.32;99969.84;5031161;28;20053;-63
2023/07/02 10:33:17;;;;;;;13.27;5.63;;;;;;;25.11;46.06;99963.28;5030977;28;20099;-63
2023/07/02 10:35:47;;;;;;;12.85;5.75;;;;;;;25.55;44.93;99961.84;5030957;28;20103;-64
2023/07/02 10:38:18;;;;;;;12.00;5.38;;;;;;;25.79;43.57;99962.06;5030697;28;20147;-64
2023/07/02 10:40:45;;;;;;;;;;;;;;;24.29;45.71;99962.31;5031051;28;20054;-63
2023/07/02 10:43:12;;;;;;;13.10;5.68;;;;;;;22.84;49.33;99960.06;5031182;28;19921;-63
2023/07/02 10:45:39;;;;;;;13.95;5.95;;;;;;;21.92;51.46;99953.63;5030442;28;20390;-63
2023/07/02 10:48:09;;;;;;;12.70;6.10;;;;;;;23.29;49.45;99954.16;5031007;28;20489;-65
2023/07/02 10:50:36;;;;;;;13.95;6.20;;;;;;;23.98;48.34;99962.22;5030662;28;20049;-63
2023/07/02 10:53:03;;;;;;;14.23;6.03;;;;;;;23.83;47.75;99961.34;5030378;28;20073;-62
2023/07/02 10:55:31;;;;;;;15.25;6.00;;;;;;;23.43;48.36;99952.63;5030210;28;20476;-63
2023/07/02 10:58:09;;;;;;;11.50;6.55;;;;;;;22.90;47.79;99950.81;5030110;28;20489;-62
2023/07/02 11:00:50;;;;;;;17.90;7.03;;;;;;;21.92;50.60;99938.03;5029956;28;20524;-63
2023/07/02 11:03:19;;;;;;;16.98;7.00;;;;;;;20.82;53.58;99959.56;5030554;28;20050;-63
2023/07/02 11:05:46;;;;;;;17.58;6.95;;;;;;;20.67;53.66;99964.78;5030597;28;20509;-63
2023/07/02 11:08:14;;;;;;;16.63;6.90;;;;;;;21.03;52.92;99954.47;5030288;28;20080;-63
2023/07/02 11:10:41;;;;;;;14.65;6.78;;;;;;;22.00;50.74;99962.16;5031074;28;20046;-63
2023/07/02 11:13:18;;;;;;;14.40;6.60;;;;;;;22.29;48.09;99968.25;5030690;28;20050;-64
2023/07/02 11:15:46;;;;;;;20.95;7.43;;;;;;;22.40;47.00;99961.00;5029980;28;20453;-63
2023/07/02 11:18:16;;;;;;;17.70;7.13;;;;;;;22.48;47.63;99963.28;5030071;28;20052;-64
2023/07/02 11:20:45;;;;;;;19.15;6.47;;;;;;;22.42;47.03;99960.72;5030175;28;20049;-64
2023/07/02 11:23:23;;;;;;;19.63;7.40;;;;;;;21.61;47.72;99967.66;5031014;28;20049;-63
2023/07/02 11:26:02;;;;;;;17.50;6.85;;;;;;;21.32;50.99;99993.41;5029880;28;20511;-63
2023/07/02 11:28:31;;;;;;;20.25;7.13;;;;;;;20.75;53.75;99990.78;5030319;28;20045;-63
2023/07/02 11:30:59;;;;;;;22.17;7.68;;;;;;;20.05;56.75;99983.72;5029934;28;20112;-63
2023/07/02 11:33:39;;;;;;;19.92;7.75;;;;;;;19.74;60.15;100002.09;5029745;28;20045;-63